.
WxDataArchive / Data Records for 2012-07-01
2012-06-30 July 2012 2012-07-02

Data Records for Sunday, 01 July 2012

Time	Temp	Chill	HIndex	Humid	Dewpt	 Wind 	HiWind	WindDir	Rain 	Barom 
-----	----	-----	------	-----	-----	------	------	-------	-----	----- 
00:00	77.0	77.0	78.7	76	68.8	0	0	---	0.00	29.840 
00:05	76.8	76.8	78.4	76	68.6	0	0	---	0.00	29.840 
00:10	76.7	76.7	78.2	77	68.9	0	0	---	0.00	29.840 
00:15	76.3	76.3	77.6	77	68.5	0	0	---	0.00	29.838 
00:20	76.1	76.1	77.3	78	68.7	0	0	---	0.00	29.838 
00:25	76.0	76.0	77.2	78	68.6	0	0	---	0.00	29.838 
00:30	75.8	75.8	76.8	79	68.8	0	0	---	0.00	29.838 
00:35	75.6	75.6	76.5	79	68.6	0	0	---	0.00	29.838 
00:40	75.4	75.4	76.1	80	68.8	0	0	---	0.00	29.838 
00:45	75.3	75.3	75.9	81	69.1	0	0	---	0.00	29.838 
00:50	75.1	75.1	75.6	81	68.9	0	0	---	0.00	29.838 
00:55	74.7	74.7	74.7	81	68.5	0	0	---	0.00	29.838 
01:00	74.6	74.6	74.6	82	68.7	0	0	---	0.00	29.833 
01:05	74.4	74.4	74.4	83	68.9	0	0	---	0.00	29.833 
01:10	74.2	74.2	74.2	83	68.7	0	0	---	0.00	29.833 
01:15	73.9	73.9	73.9	83	68.4	0	0	---	0.00	29.838 
01:20	73.7	73.7	73.7	84	68.6	0	0	---	0.00	29.838 
01:25	73.5	73.5	73.5	84	68.4	0	0	---	0.00	29.838 
01:30	73.3	73.3	73.3	85	68.5	0	0	---	0.00	29.836 
01:35	73.2	73.2	73.2	85	68.4	0	0	---	0.00	29.836 
01:40	73.0	73.0	73.0	86	68.6	0	0	---	0.00	29.836 
01:45	72.8	72.8	72.8	86	68.4	0	0	---	0.00	29.842 
01:50	72.5	72.5	72.5	86	68.1	0	0	---	0.00	29.842 
01:55	72.5	72.5	72.5	87	68.4	0	0	---	0.00	29.842 
02:00	72.3	72.3	72.3	87	68.2	0	0	---	0.00	29.843 
02:05	72.1	72.1	72.1	87	68.0	0	0	---	0.00	29.843 
02:10	72.0	72.0	72.0	88	68.2	0	0	---	0.00	29.843 
02:15	71.8	71.8	71.8	88	68.0	0	0	---	0.00	29.845 
02:20	71.6	71.6	71.6	88	67.8	0	0	---	0.00	29.845 
02:25	71.6	71.6	71.6	88	67.8	0	0	---	0.00	29.845 
02:30	71.5	71.5	71.5	89	68.1	0	0	---	0.00	29.858 
02:35	71.3	71.3	71.3	89	67.9	0	0	---	0.00	29.858 
02:40	71.3	71.3	71.3	89	67.9	0	0	---	0.00	29.858 
02:45	71.1	71.1	71.1	89	67.7	0	0	---	0.00	29.859 
02:50	71.1	71.1	71.1	90	68.0	0	0	---	0.00	29.859 
02:55	70.9	70.9	70.9	90	67.8	0	0	---	0.00	29.859 
03:00	70.9	70.9	70.9	90	67.8	0	0	---	0.00	29.860 
03:05	70.8	70.8	70.8	90	67.7	0	0	---	0.00	29.860 
03:10	70.6	70.6	70.6	90	67.5	0	0	---	0.00	29.860 
03:15	70.4	70.4	70.4	90	67.3	0	0	---	0.00	29.861 
03:20	70.3	70.3	70.3	91	67.5	0	0	---	0.00	29.861 
03:25	70.3	70.3	70.3	91	67.5	0	0	---	0.00	29.861 
03:30	70.1	70.1	70.1	91	67.3	0	0	---	0.00	29.867 
03:35	70.1	70.1	70.1	91	67.3	0	0	---	0.00	29.867 
03:40	69.9	69.9	69.9	91	67.1	0	0	---	0.00	29.867 
03:45	69.9	69.9	69.9	92	67.5	0	0	---	0.00	29.875 
03:50	69.8	69.8	69.8	92	67.4	0	0	---	0.00	29.875 
03:55	69.6	69.6	69.6	92	67.2	0	0	---	0.00	29.875 
04:00	69.6	69.6	69.6	92	67.2	0	0	---	0.00	29.876 
04:05	69.4	69.4	69.4	92	67.0	0	0	---	0.00	29.876 
04:10	69.4	69.4	69.4	92	67.0	0	0	---	0.00	29.876 
04:15	69.3	69.3	69.3	92	66.9	0	0	---	0.00	29.879 
04:20	69.3	69.3	69.3	92	66.9	0	0	---	0.00	29.879 
04:25	69.1	69.1	69.1	92	66.7	0	0	---	0.00	29.879 
04:30	69.1	69.1	69.1	92	66.7	0	0	---	0.00	29.881 
04:35	68.9	68.9	68.9	92	66.5	0	0	---	0.00	29.881 
04:40	68.9	68.9	68.9	92	66.5	0	0	---	0.00	29.881 
04:45	68.8	68.8	68.8	93	66.7	0	0	---	0.00	29.880 
04:50	68.8	68.8	68.8	93	66.7	0	0	---	0.00	29.880 
04:55	68.8	68.8	68.8	93	66.7	0	0	---	0.00	29.880 
05:00	68.6	68.6	68.6	93	66.5	0	0	---	0.00	29.879 
05:05	68.4	68.4	68.4	93	66.3	0	0	---	0.00	29.879 
05:10	68.3	68.3	68.3	93	66.2	0	0	---	0.00	29.879 
05:15	68.3	68.3	68.3	93	66.2	0	0	---	0.00	29.876 
05:20	68.1	68.1	68.1	93	66.0	0	0	---	0.00	29.876 
05:25	68.1	68.1	68.1	93	66.0	0	0	---	0.00	29.876 
05:30	68.1	68.1	68.1	93	66.0	0	0	---	0.00	29.877 
05:35	68.1	68.1	68.1	93	66.0	0	0	---	0.00	29.877 
05:40	68.1	68.1	68.1	93	66.0	0	0	---	0.00	29.877 
05:45	68.1	68.1	68.1	93	66.0	0	0	---	0.00	29.880 
05:50	67.9	67.9	67.9	93	65.8	0	0	---	0.00	29.880 
05:55	67.8	67.8	67.8	93	65.7	0	0	---	0.00	29.880 
06:00	67.8	67.8	67.8	93	65.7	0	0	---	0.00	29.888 
06:05	67.8	67.8	67.8	94	66.0	0	0	---	0.00	29.888 
06:10	67.6	67.6	67.6	94	65.8	0	0	---	0.00	29.888 
06:15	67.6	67.6	67.6	94	65.8	0	0	---	0.00	29.891 
06:20	67.6	67.6	67.6	94	65.8	0	0	---	0.00	29.891 
06:25	67.6	67.6	67.6	94	65.8	0	0	---	0.00	29.891 
06:30	67.4	67.4	67.4	94	65.6	0	0	---	0.00	29.892 
06:35	67.4	67.4	67.4	94	65.6	0	0	---	0.00	29.892 
06:40	67.6	67.6	67.6	94	65.8	0	0	---	0.00	29.892 
06:45	67.8	67.8	67.8	94	66.0	0	0	---	0.00	29.895 
06:50	67.9	67.9	67.9	94	66.1	0	0	---	0.00	29.895 
06:55	68.1	68.1	68.1	95	66.6	0	0	---	0.00	29.895 
07:00	68.4	68.4	68.4	95	66.9	0	0	---	0.00	29.897 
07:05	68.8	68.8	68.8	95	67.3	0	0	---	0.00	29.897 
07:10	69.1	69.1	69.1	95	67.6	0	0	---	0.00	29.897 
07:15	69.8	69.8	69.8	95	68.3	0	0	---	0.00	29.909 
07:20	70.3	70.3	70.3	95	68.8	0	0	---	0.00	29.909 
07:25	70.8	70.8	70.8	95	69.3	0	0	---	0.00	29.909 
07:30	71.1	71.1	71.1	95	69.6	0	0	---	0.00	29.911 
07:35	71.6	71.6	71.6	95	70.1	0	0	---	0.00	29.911 
07:40	72.1	72.1	72.1	95	70.6	0	0	---	0.00	29.911 
07:45	72.5	72.5	72.5	95	71.0	0	0	---	0.00	29.919 
07:50	72.7	72.7	72.7	94	70.9	0	0	---	0.00	29.919 
07:55	73.0	73.0	73.0	94	71.2	0	0	---	0.00	29.919 
08:00	73.2	73.2	73.2	93	71.0	0	0	---	0.00	29.925 
08:05	73.3	73.3	73.3	92	70.8	0	0	---	0.00	29.925 
08:10	73.5	73.5	73.5	92	71.0	0	0	---	0.00	29.925 
08:15	73.7	73.7	73.7	91	70.9	0	0	---	0.00	29.929 
08:20	73.9	73.9	73.9	90	70.8	0	0	---	0.00	29.929 
08:25	74.2	74.2	74.2	90	71.1	0	0	---	0.00	29.929 
08:30	74.6	74.6	74.6	90	71.5	0	1	270	0.00	29.932 
08:35	75.3	75.3	75.0	88	71.5	0	2	270	0.00	29.932 
08:40	75.8	75.8	76.0	87	71.6	0	1	225	0.00	29.932 
08:45	76.3	76.3	77.0	86	71.8	0	2	225	0.00	29.934 
08:50	76.5	76.5	77.5	84	71.3	0	2	90	0.00	29.934 
08:55	76.8	76.8	78.1	84	71.6	0	1	90	0.00	29.934 
09:00	77.2	77.2	78.8	83	71.6	0	2	135	0.00	29.935 
09:05	77.7	77.7	79.8	82	71.8	0	2	135	0.00	29.935 
09:10	78.3	78.3	80.9	81	72.0	0	2	135	0.00	29.935 
09:15	78.8	78.8	81.8	80	72.1	1	3	135	0.00	29.934 
09:20	79.9	79.9	83.6	77	72.0	0	2	135	0.00	29.934 
09:25	80.5	80.5	84.5	75	71.8	1	3	135	0.00	29.934 
09:30	80.9	80.9	85.1	74	71.8	1	4	112	0.00	29.936 
09:35	81.4	81.4	86.1	74	72.3	0	1	112	0.00	29.936 
09:40	82.2	82.2	87.3	72	72.2	0	5	112	0.00	29.936 
09:45	82.6	82.6	87.8	71	72.2	1	2	112	0.00	29.934 
09:50	82.2	82.2	87.0	71	71.8	0	2	112	0.00	29.934 
09:55	82.4	82.4	87.4	71	72.0	0	1	112	0.00	29.934 
10:00	83.2	83.2	87.5	65	70.2	0	1	112	0.00	29.934 
10:05	83.0	83.0	87.1	65	70.0	1	4	292	0.00	29.934 
10:10	83.2	83.2	86.9	63	69.3	1	3	112	0.00	29.934 
10:15	83.8	83.8	88.0	63	69.8	1	2	112	0.00	29.935 
10:20	84.3	84.3	88.3	61	69.4	1	2	112	0.00	29.935 
10:25	84.1	84.1	88.2	62	69.6	1	3	22	0.00	29.935 
10:30	84.0	84.0	88.1	62	69.5	1	3	315	0.00	29.934 
10:35	84.3	84.3	88.3	61	69.4	1	5	112	0.00	29.934 
10:40	84.5	84.5	88.7	61	69.5	2	5	112	0.00	29.934 
10:45	84.9	84.9	89.1	60	69.4	1	3	292	0.00	29.929 
10:50	85.5	85.5	90.2	60	70.0	1	3	292	0.00	29.929 
10:55	86.3	86.3	91.3	59	70.2	0	2	135	0.00	29.929 
11:00	86.5	86.5	91.3	58	69.9	1	3	248	0.00	29.923 
11:05	86.3	86.3	91.3	59	70.2	0	2	248	0.00	29.923 
11:10	85.9	85.9	90.9	60	70.4	1	3	248	0.00	29.923 
11:15	85.7	85.7	90.5	60	70.2	2	4	292	0.00	29.931 
11:20	85.7	85.7	90.5	60	70.2	1	2	112	0.00	29.931 
11:25	86.3	86.3	91.3	59	70.2	1	3	112	0.00	29.931 
11:30	87.2	87.2	92.3	57	70.1	1	4	112	0.00	29.933 
11:35	87.0	87.0	91.5	56	69.4	2	4	112	0.00	29.933 
11:40	86.5	86.5	90.6	56	68.9	1	3	292	0.00	29.933 
11:45	87.0	87.0	91.1	55	68.8	1	3	45	0.00	29.937 
11:50	87.8	87.8	93.0	56	70.1	0	2	45	0.00	29.937 
11:55	88.0	88.0	91.4	51	67.6	1	3	0	0.00	29.937 
12:00	88.6	88.6	92.1	50	67.5	1	3	0	0.00	29.946 
12:05	89.3	89.3	93.3	50	68.2	1	3	0	0.00	29.946 
12:10	89.5	89.5	92.4	47	66.6	2	4	315	0.00	29.946 
12:15	89.7	89.7	92.4	46	66.1	0	2	292	0.00	29.949 
12:20	89.7	89.7	92.0	45	65.5	2	5	270	0.00	29.949 
12:25	89.5	89.5	93.2	49	67.8	1	3	270	0.00	29.949 
12:30	89.7	89.7	93.2	48	67.4	1	3	270	0.00	29.951 
12:35	89.7	89.7	92.0	45	65.5	2	4	270	0.00	29.951 
12:40	89.5	89.5	91.7	45	65.3	2	4	270	0.00	29.951 
12:45	89.7	89.7	92.0	45	65.5	1	4	270	0.00	29.950 
12:50	89.9	89.9	92.3	45	65.7	2	5	270	0.00	29.950 
12:55	89.9	89.9	91.6	43	64.4	1	4	270	0.00	29.950 
13:00	90.1	90.1	91.9	43	64.5	2	4	270	0.00	29.940 
13:05	90.3	90.3	92.2	43	64.7	1	3	270	0.00	29.940 
13:10	91.0	91.0	93.8	44	66.0	0	3	270	0.00	29.940 
13:15	91.4	91.4	93.6	42	65.0	0	2	270	0.00	29.933 
13:20	92.1	92.1	95.2	43	66.3	0	1	270	0.00	29.933 
13:25	92.5	92.5	95.5	42	66.0	0	1	270	0.00	29.933 
13:30	93.2	93.2	96.2	41	65.9	1	3	270	0.00	29.919 
13:35	92.7	92.7	94.5	39	64.1	2	7	90	0.00	29.919 
13:40	92.5	92.5	93.0	36	61.6	2	5	90	0.00	29.919 
13:45	92.3	92.3	93.1	37	62.2	1	4	292	0.00	29.921 
13:50	92.3	92.3	93.1	37	62.2	0	2	292	0.00	29.921 
13:55	92.5	92.5	93.4	37	62.4	1	4	292	0.00	29.921 
14:00	92.7	92.7	94.1	38	63.3	1	4	292	0.00	29.920 
14:05	92.9	92.9	93.6	36	62.0	1	5	292	0.00	29.920 
14:10	93.2	93.2	93.7	35	61.4	1	4	292	0.00	29.920 
14:15	93.2	93.2	94.5	37	63.0	2	5	270	0.00	29.921 
14:20	93.2	93.2	93.7	35	61.4	1	3	270	0.00	29.921 
14:25	93.2	93.2	94.1	36	62.2	1	4	292	0.00	29.921 
14:30	93.6	93.6	94.3	35	61.8	1	3	292	0.00	29.910 
14:35	93.8	93.8	93.4	32	59.4	1	3	338	0.00	29.910 
14:40	93.6	93.6	93.9	34	61.0	1	2	338	0.00	29.910 
14:45	93.6	93.6	94.3	35	61.8	2	4	292	0.00	29.914 
14:50	93.4	93.4	94.0	35	61.6	1	3	292	0.00	29.914 
14:55	93.6	93.6	93.5	33	60.1	1	4	292	0.00	29.914 
15:00	93.8	93.8	93.1	31	58.5	1	5	315	0.00	29.911 
15:05	93.8	93.8	93.8	33	60.3	2	4	270	0.00	29.911 
15:10	94.0	94.0	94.1	33	60.5	1	4	270	0.00	29.911 
15:15	94.5	94.5	95.7	35	62.6	1	2	338	0.00	29.907 
15:20	94.5	94.5	94.4	32	60.0	0	2	338	0.00	29.907 
15:25	94.5	94.5	94.4	32	60.0	1	3	90	0.00	29.907 
15:30	93.8	93.8	93.4	32	59.4	1	5	315	0.00	29.898 
15:35	94.0	94.0	94.1	33	60.5	0	1	315	0.00	29.898 
15:40	94.0	94.0	94.1	33	60.5	1	4	315	0.00	29.898 
15:45	93.4	93.4	92.8	32	59.1	2	5	270	0.00	29.913 
15:50	92.7	92.7	92.5	34	60.2	1	2	292	0.00	29.913 
15:55	92.5	92.5	91.9	33	59.2	2	4	292	0.00	29.913 
16:00	92.3	92.3	92.0	34	59.8	2	4	292	0.00	29.933 
16:05	92.1	92.1	92.0	35	60.5	2	4	270	0.00	29.933 
16:10	91.6	91.6	91.3	35	60.0	2	4	292	0.00	29.933 
16:15	91.2	91.2	91.4	37	61.2	3	5	292	0.00	29.939 
16:20	90.5	90.5	91.1	39	62.1	3	9	270	0.00	29.939 
16:25	88.2	88.2	89.0	43	62.8	7	17	248	0.00	29.939 
16:30	84.3	84.3	84.9	47	61.8	7	17	270	0.00	29.997 
16:35	81.2	81.2	82.1	51	61.3	8	15	270	0.00	29.997 
16:40	79.4	79.4	80.5	53	60.8	7	12	270	0.00	29.997 
16:45	78.1	78.1	79.5	55	60.6	6	12	270	0.00	29.996 
16:50	77.4	77.4	79.1	57	61.0	4	10	270	0.00	29.996 
16:55	76.8	76.8	78.6	58	60.9	5	10	270	0.00	29.996 
17:00	76.3	76.3	78.2	60	61.4	4	7	270	0.00	30.001 
17:05	75.6	75.6	77.7	62	61.6	5	10	270	0.00	30.001 
17:10	74.9	74.9	74.9	64	61.9	3	6	292	0.00	30.001 
17:15	74.6	74.6	74.6	63	61.2	3	7	270	0.00	29.986 
17:20	74.6	74.6	74.6	63	61.2	3	6	248	0.00	29.986 
17:25	74.9	74.9	74.9	62	61.0	1	3	270	0.00	29.986 
17:30	75.1	75.1	77.4	61	60.7	2	5	270	0.00	29.970 
17:35	75.4	75.4	77.6	59	60.1	2	4	270	0.00	29.970 
17:40	76.0	76.0	78.0	58	60.1	3	4	248	0.00	29.970 
17:45	76.3	76.3	78.3	57	59.9	2	3	315	0.00	29.953 
17:50	76.8	76.8	78.6	55	59.4	2	5	225	0.00	29.953 
17:55	77.2	77.2	78.9	55	59.8	1	3	225	0.00	29.953 
18:00	77.6	77.6	79.1	54	59.6	1	3	225	0.00	29.945 
18:05	77.7	77.7	79.2	53	59.2	1	4	248	0.00	29.945 
18:10	78.1	78.1	79.5	53	59.6	1	3	248	0.00	29.945 
18:15	78.3	78.3	79.7	54	60.3	0	2	248	0.00	29.937 
18:20	78.5	78.5	79.8	53	59.9	0	1	248	0.00	29.937 
18:25	78.6	78.6	79.8	53	60.0	0	0	---	0.00	29.937 
18:30	78.8	78.8	80.0	53	60.2	0	1	248	0.00	29.919 
18:35	79.0	79.0	80.2	53	60.4	1	3	248	0.00	29.919 
18:40	79.4	79.4	80.5	52	60.2	1	5	90	0.00	29.919 
18:45	79.6	79.6	80.5	51	59.9	2	5	90	0.00	29.891 
18:50	79.6	79.6	80.6	52	60.4	3	6	90	0.00	29.891 
18:55	79.8	79.8	80.8	52	60.6	2	6	90	0.00	29.891 
19:00	79.9	79.9	80.7	50	59.6	2	4	68	0.00	29.887 
19:05	79.9	79.9	80.8	51	60.1	2	5	112	0.00	29.887 
19:10	80.1	80.1	81.1	52	60.9	1	3	112	0.00	29.887 
19:15	80.3	80.3	81.2	51	60.5	1	3	112	0.00	29.886 
19:20	80.3	80.3	81.1	50	59.9	2	5	112	0.00	29.886 
19:25	80.5	80.5	81.4	51	60.7	1	3	112	0.00	29.886 
19:30	80.3	80.3	81.2	51	60.5	1	4	112	0.00	29.882 
19:35	80.1	80.1	81.1	52	60.9	1	3	112	0.00	29.882 
19:40	80.1	80.1	81.0	51	60.3	1	4	112	0.00	29.882 
19:45	79.9	79.9	81.0	53	61.2	0	2	112	0.00	29.868 
19:50	79.9	79.9	81.1	54	61.7	1	4	112	0.00	29.868 
19:55	79.8	79.8	81.0	54	61.7	0	2	112	0.00	29.868 
20:00	79.6	79.6	80.8	54	61.5	0	1	112	0.00	29.866 
20:05	79.6	79.6	80.9	55	62.0	0	3	112	0.00	29.866 
20:10	79.4	79.4	80.6	54	61.3	1	4	112	0.00	29.866 
20:15	79.2	79.2	80.4	54	61.1	0	2	112	0.00	29.866 
20:20	79.2	79.2	80.5	55	61.6	0	1	112	0.00	29.866 
20:25	79.2	79.2	80.5	55	61.6	0	0	---	0.00	29.866 
20:30	79.0	79.0	80.4	56	61.9	0	0	---	0.00	29.882 
20:35	79.0	79.0	80.4	56	61.9	0	0	---	0.00	29.882 
20:40	78.8	78.8	80.2	56	61.8	0	0	---	0.00	29.882 
20:45	78.5	78.5	80.0	57	62.0	0	0	---	0.00	29.892 
20:50	78.3	78.3	79.9	59	62.8	0	0	---	0.00	29.892 
20:55	77.9	77.9	79.5	59	62.4	0	0	---	0.00	29.892 
21:00	77.6	77.6	79.3	59	62.1	0	0	---	0.00	29.901 
21:05	77.2	77.2	78.9	59	61.7	0	1	112	0.00	29.901 
21:10	77.0	77.0	78.8	60	62.0	0	1	112	0.00	29.901 
21:15	76.8	76.8	78.6	60	61.8	0	0	---	0.00	29.907 
21:20	76.5	76.5	78.4	61	62.0	0	0	---	0.00	29.907 
21:25	76.3	76.3	78.2	61	61.8	0	0	---	0.00	29.907 
21:30	76.1	76.1	78.0	62	62.1	0	0	---	0.00	29.912 
21:35	75.8	75.8	77.8	63	62.3	0	0	---	0.00	29.912 
21:40	75.4	75.4	77.4	64	62.4	0	0	---	0.00	29.912 
21:45	75.1	75.1	77.1	65	62.5	0	0	---	0.00	29.925 
21:50	74.7	74.7	74.7	65	62.1	0	0	---	0.00	29.925 
21:55	74.4	74.4	74.4	66	62.3	0	0	---	0.00	29.925 
22:00	74.0	74.0	74.0	67	62.3	0	0	---	0.00	29.939 
22:05	73.7	73.7	73.7	68	62.5	0	0	---	0.00	29.939 
22:10	73.5	73.5	73.5	68	62.3	0	0	---	0.00	29.939 
22:15	73.2	73.2	73.2	69	62.4	0	0	---	0.00	29.938 
22:20	72.8	72.8	72.8	70	62.4	0	0	---	0.00	29.938 
22:25	72.7	72.7	72.7	71	62.7	0	0	---	0.00	29.938 
22:30	72.3	72.3	72.3	72	62.8	0	0	---	0.00	29.941 
22:35	72.1	72.1	72.1	73	63.0	0	0	---	0.00	29.941 
22:40	72.0	72.0	72.0	74	63.2	0	0	---	0.00	29.941 
22:45	71.8	71.8	71.8	75	63.4	0	0	---	0.00	29.939 
22:50	71.6	71.6	71.6	76	63.6	0	1	112	0.00	29.939 
22:55	71.5	71.5	71.5	77	63.9	0	0	---	0.00	29.939 
23:00	71.3	71.3	71.3	78	64.1	0	0	---	0.00	29.942 
23:05	71.3	71.3	71.3	79	64.4	0	0	---	0.00	29.942 
23:10	71.1	71.1	71.1	80	64.6	0	0	---	0.00	29.942 
23:15	71.1	71.1	71.1	80	64.6	0	0	---	0.00	29.944 
23:20	70.9	70.9	70.9	81	64.8	0	0	---	0.00	29.944 
23:25	70.8	70.8	70.8	81	64.7	0	0	---	0.00	29.944 
23:30	70.6	70.6	70.6	81	64.5	0	0	---	0.00	29.939 
23:35	70.4	70.4	70.4	81	64.3	0	0	---	0.00	29.939 
23:40	70.3	70.3	70.3	81	64.2	0	0	---	0.00	29.939 
23:45	70.1	70.1	70.1	82	64.3	0	0	---	0.00	29.938 
23:50	69.9	69.9	69.9	82	64.1	0	0	---	0.00	29.938 
23:55	69.8	69.8	69.8	82	64.0	0	0	---	0.00	29.938 

CoCoRaHS
IN-AL-39
A2 Web Hosting
Creative Commons License
GoDaddy
search engine by freefind advanced

loaded 2018-11-20 15:38:34 • last modified 2010-11-18 10:43:29
Privacy PolicyDisclaimer
• wx.awcolley.com is powered by PmWiki v.2002016 •
• all content (unless otherwise noted) © 2018 A W Colley